RPUI weather

Iba Airport
Iba, Zambales Province, Philippines

Public forecast

Using degrees Celsius for public forecast. Weather courtesy of forecast.io.

Closest aviation weather report (METAR) to Iba Airport

Closest report is Diosdado Macapagal International Airport, 35.2 nm (65.2 km) ESE. Retrieved 2019/12/09 09:00 UTC (56 minutes ago):

RPLC 090900Z 09006KT 9999 SCT020 BKN300 29/21 Q1012 NOSIG RMK A2988

Closest aviation forecast (TAF) to Iba Airport

Closest forecast is Diosdado Macapagal International Airport, 35.2 nm (65.2 km) ESE. Retrieved 2019/12/09 06:03 UTC (4 hours ago):

TAF RPLC 090500Z 0906/1012 34008KT 9999 FEW020 SCT300 TX31/0906Z TN22/0922Z TEMPO 0906/0912 07008KT FEW020 BKN300